Time;durP1;ratioP1;P1;durP2;ratioP2;P2;SDS_P1;SDS_P2;PMS_P1;PMS_P2;Temp;Humidity;BMP_temperature;BMP_pressure;BME280_temperature;BME280_humidity;BME280_pressure;Samples;Min_cycle;Max_cycle;Signal;HPM_P1;HPM_P2
2024/04/01 00:01:39;;;;;;;54.13;8.20;;;17.20;58.70;;;;;;5099168;28;20028;-69
2024/04/01 00:04:05;;;;;;;62.47;9.88;;;17.10;58.90;;;;;;5099140;28;20245;-68
2024/04/01 00:06:30;;;;;;;45.88;8.07;;;17.10;59.00;;;;;;5098886;28;20032;-68
2024/04/01 00:08:56;;;;;;;60.10;8.77;;;17.10;59.00;;;;;;5098554;28;20344;-68
2024/04/01 00:11:23;;;;;;;52.33;9.30;;;17.10;59.10;;;;;;5107547;28;20020;-68
2024/04/01 00:13:49;;;;;;;56.78;10.50;;;17.10;59.30;;;;;;5099330;28;20069;-68
2024/04/01 00:16:15;;;;;;;65.80;10.32;;;17.10;59.40;;;;;;5101933;28;20148;-68
2024/04/01 00:18:41;;;;;;;62.88;9.70;;;17.20;59.50;;;;;;5102324;28;20023;-70
2024/04/01 00:21:07;;;;;;;54.80;9.63;;;17.10;59.50;;;;;;5102531;28;20086;-70
2024/04/01 00:23:33;;;;;;;54.85;10.20;;;17.10;59.60;;;;;;5102099;28;20064;-70
2024/04/01 00:25:59;;;;;;;57.67;9.98;;;17.10;59.70;;;;;;5106455;28;20039;-69
2024/04/01 00:28:24;;;;;;;69.45;9.55;;;17.10;59.80;;;;;;5101930;28;20501;-70
2024/04/01 00:30:52;;;;;;;58.53;9.23;;;17.10;59.90;;;;;;5102411;28;20083;-70
2024/04/01 00:33:17;;;;;;;50.08;9.43;;;17.10;85.50;;;;;;5110268;28;20034;-70
2024/04/01 00:35:43;;;;;;;55.40;8.98;;;17.10;60.20;;;;;;5101973;28;20035;-70
2024/04/01 00:38:08;;;;;;;43.45;8.73;;;17.10;60.20;;;;;;5101928;28;20032;-69
2024/04/01 00:40:35;;;;;;;53.50;8.63;;;17.00;60.40;;;;;;5083730;28;20236;-69
2024/04/01 00:43:19;;;;;;;50.92;9.50;;;16.90;60.30;;;;;;5101628;28;20040;-69
2024/04/01 00:45:48;;;;;;;46.55;6.90;;;16.90;60.90;;;;;;5101649;28;20069;-69
2024/04/01 00:48:15;;;;;;;61.38;10.75;;;16.90;61.10;;;;;;5102148;28;20050;-69
2024/04/01 00:50:46;;;;;;;66.80;10.45;;;16.80;61.30;;;;;;5101828;28;20031;-69
2024/04/01 00:53:12;;;;;;;77.25;10.80;;;16.70;61.40;;;;;;5101341;28;20040;-69
2024/04/01 00:55:41;;;;;;;57.55;9.23;;;16.70;61.70;;;;;;5101795;28;20040;-69
2024/04/01 00:58:07;;;;;;;76.47;10.75;;;16.60;61.50;;;;;;5101353;28;20020;-69
2024/04/01 01:00:33;;;;;;;64.20;11.85;;;16.60;62.20;;;;;;5101645;28;20070;-69
2024/04/01 01:03:00;;;;;;;47.45;7.60;;;16.40;80.90;;;;;;5101622;28;20072;-69
2024/04/01 01:05:27;;;;;;;53.65;8.93;;;16.30;79.30;;;;;;5107975;28;20050;-69
2024/04/01 01:07:54;;;;;;;45.47;9.30;;;16.40;66.40;;;;;;5103038;28;20032;-69
2024/04/01 01:10:24;;;;;;;52.63;10.15;;;16.30;62.90;;;;;;5101371;28;20031;-69
2024/04/01 01:12:50;;;;;;;53.10;8.48;;;16.30;81.50;;;;;;5101205;28;20127;-69
2024/04/01 01:15:16;;;;;;;58.30;10.57;;;16.20;68.10;;;;;;5101331;28;20028;-69
2024/04/01 01:17:42;;;;;;;52.58;10.52;;;16.30;81.80;;;;;;5101278;28;20062;-69
2024/04/01 01:20:11;;;;;;;64.75;9.35;;;16.20;81.50;;;;;;5101273;28;20043;-69
2024/04/01 01:22:41;;;;;;;53.10;9.80;;;16.40;81.50;;;;;;5104995;28;20051;-69
2024/04/01 01:25:08;;;;;;;59.97;10.15;;;16.40;81.40;;;;;;5109520;27;20039;-68
2024/04/01 01:27:39;;;;;;;59.72;10.02;;;16.40;81.10;;;;;;5113840;27;20355;-68
2024/04/01 01:30:24;;;;;;;67.72;8.45;;;16.40;80.90;;;;;;5100875;28;20452;-68
2024/04/01 01:32:54;;;;;;;57.28;10.45;;;16.50;80.80;;;;;;5082511;28;20047;-67
2024/04/01 01:35:26;;;;;;;56.70;9.27;;;16.40;80.40;;;;;;5082765;28;20051;-65
2024/04/01 01:37:53;;;;;;;54.88;8.55;;;16.60;80.00;;;;;;5101461;28;20028;-65
2024/04/01 01:40:20;;;;;;;60.22;9.90;;;16.60;79.40;;;;;;5079033;28;20527;-65
2024/04/01 01:42:46;;;;;;;77.60;12.48;;;16.60;79.00;;;;;;5097473;28;20040;-65
2024/04/01 01:45:12;;;;;;;57.58;10.30;;;16.70;78.00;;;;;;5100415;28;20020;-65
2024/04/01 01:47:39;;;;;;;58.15;9.60;;;16.70;77.90;;;;;;5100568;28;20231;-68
2024/04/01 01:50:07;;;;;;;52.50;9.38;;;16.70;60.00;;;;;;5108839;28;20141;-68
2024/04/01 01:52:33;;;;;;;55.92;9.25;;;;;;;;;;5100411;28;20032;-69
2024/04/01 01:55:00;;;;;;;58.63;9.40;;;16.80;59.80;;;;;;5100955;28;20344;-68
2024/04/01 01:57:27;;;;;;;65.20;9.73;;;16.80;59.60;;;;;;5100586;28;20320;-68
2024/04/01 01:59:52;;;;;;;59.00;10.43;;;16.80;74.30;;;;;;5100241;28;20035;-69
2024/04/01 02:02:19;;;;;;;55.63;9.52;;;16.80;59.30;;;;;;5100327;28;20208;-68
2024/04/01 02:04:45;;;;;;;71.78;11.43;;;16.60;65.60;;;;;;5100225;28;20040;-66
2024/04/01 02:07:11;;;;;;;72.32;9.80;;;;;;;;;;5100327;28;20216;-66
2024/04/01 02:09:37;;;;;;;84.40;11.13;;;;;;;;;;5100172;28;20291;-66
2024/04/01 02:12:09;;;;;;;64.90;9.68;;;16.90;58.60;;;;;;5082485;28;20032;-66
2024/04/01 02:14:37;;;;;;;58.33;9.95;;;17.50;60.10;;;;;;5100269;28;20346;-66
2024/04/01 02:17:09;;;;;;;64.63;10.77;;;16.90;74.80;;;;;;5100333;28;20038;-67
2024/04/01 02:19:37;;;;;;;54.30;10.18;;;17.10;62.10;;;;;;5100211;28;20036;-67
2024/04/01 02:22:03;;;;;;;76.25;10.27;;;17.00;58.20;;;;;;5099867;28;20024;-69
2024/04/01 02:24:29;;;;;;;64.07;9.93;;;;;;;;;;5100044;28;20027;-69
2024/04/01 02:26:55;;;;;;;52.22;10.13;;;16.70;74.40;;;;;;5101411;28;20066;-69
2024/04/01 02:29:22;;;;;;;66.30;9.55;;;16.90;57.90;;;;;;5100270;28;20098;-69
2024/04/01 02:31:48;;;;;;;64.88;9.52;;;17.00;74.40;;;;;;5081501;28;20042;-69
2024/04/01 02:34:14;;;;;;;67.05;9.50;;;;;;;;;;5099760;28;20104;-69
2024/04/01 02:36:40;;;;;;;67.10;10.05;;;17.00;74.10;;;;;;5099636;28;20032;-68
2024/04/01 02:39:06;;;;;;;65.82;9.98;;;16.90;66.30;;;;;;5099123;28;20043;-69
2024/04/01 02:41:32;;;;;;;63.60;11.18;;;17.00;67.40;;;;;;5081343;28;20369;-67
2024/04/01 02:43:58;;;;;;;66.82;11.35;;;16.80;70.80;;;;;;5099488;28;20343;-67
2024/04/01 02:46:24;;;;;;;77.45;11.88;;;16.80;61.20;;;;;;5101944;28;20036;-67
2024/04/01 02:48:50;;;;;;;56.20;9.15;;;16.80;74.20;;;;;;5099488;28;20069;-66
2024/04/01 02:51:16;;;;;;;63.00;11.38;;;;;;;;;;5099936;28;20031;-66
2024/04/01 02:53:47;;;;;;;66.68;10.40;;;;;;;;;;5099382;28;20055;-66
2024/04/01 02:56:13;;;;;;;50.38;9.68;;;16.70;58.20;;;;;;5099583;28;20024;-66
2024/04/01 02:58:41;;;;;;;60.72;9.35;;;16.80;74.40;;;;;;5099499;28;20023;-67
2024/04/01 03:01:07;;;;;;;59.78;9.75;;;16.60;74.30;;;;;;5099466;28;20036;-67
2024/04/01 03:03:33;;;;;;;85.03;12.85;;;;;;;;;;5099984;28;20039;-66
2024/04/01 03:05:59;;;;;;;44.42;8.90;;;16.60;65.60;;;;;;5081367;28;20036;-69
2024/04/01 03:08:25;;;;;;;66.25;10.57;;;16.40;76.20;;;;;;5101391;28;20117;-67
2024/04/01 03:11:00;;;;;;;65.90;9.80;;;16.30;76.40;;;;;;5101613;28;20028;-68
2024/04/01 03:13:27;;;;;;;55.58;10.25;;;16.60;59.50;;;;;;5102024;28;20032;-68
2024/04/01 03:15:54;;;;;;;58.00;9.18;;;16.60;76.80;;;;;;5100164;28;20063;-66
2024/04/01 03:18:20;;;;;;;68.70;10.95;;;16.50;78.60;;;;;;5099262;28;20059;-67
2024/04/01 03:20:47;;;;;;;56.20;9.00;;;16.50;78.90;;;;;;5099702;28;20095;-67
2024/04/01 03:23:16;;;;;;;58.55;10.30;;;16.50;59.40;;;;;;5099522;28;20035;-67
2024/04/01 03:25:49;;;;;;;65.05;11.38;;;16.50;59.40;;;;;;5099423;28;20059;-68
2024/04/01 03:28:15;;;;;;;57.17;11.00;;;16.50;59.40;;;;;;5099432;28;20020;-68
2024/04/01 03:30:40;;;;;;;78.45;13.52;;;16.40;59.40;;;;;;5099200;28;20371;-68
2024/04/01 03:33:06;;;;;;;77.85;11.98;;;16.40;59.50;;;;;;5099119;28;20091;-68
2024/04/01 03:35:32;;;;;;;54.90;9.32;;;16.40;59.70;;;;;;5099281;28;20064;-68
2024/04/01 03:37:58;;;;;;;58.95;10.75;;;16.40;59.80;;;;;;5099693;28;20224;-67
2024/04/01 03:40:24;;;;;;;57.63;12.52;;;16.30;59.90;;;;;;5099420;28;20086;-67
2024/04/01 03:42:49;;;;;;;72.68;10.43;;;16.20;59.50;;;;;;5098763;28;20193;-68
2024/04/01 03:45:15;;;;;;;49.95;10.30;;;16.20;59.90;;;;;;5099212;28;20056;-68
2024/04/01 03:47:41;;;;;;;49.45;10.93;;;16.20;59.80;;;;;;5099009;28;20043;-68
2024/04/01 03:50:11;;;;;;;52.28;12.27;;;16.20;59.80;;;;;;5102011;28;20095;-68
2024/04/01 03:52:40;;;;;;;61.88;9.75;;;16.20;59.70;;;;;;5102807;28;20024;-69
2024/04/01 03:55:08;;;;;;;56.63;11.90;;;16.20;59.70;;;;;;5103378;28;20023;-69
2024/04/01 03:57:34;;;;;;;65.03;10.77;;;16.20;59.40;;;;;;5103008;28;20461;-68
2024/04/01 04:00:00;;;;;;;71.53;11.95;;;16.20;59.20;;;;;;5102361;28;20367;-69
2024/04/01 04:02:25;;;;;;;56.60;10.48;;;16.20;59.00;;;;;;5102745;28;20095;-69
2024/04/01 04:04:51;;;;;;;54.00;9.75;;;16.30;58.70;;;;;;5102709;28;20414;-69
2024/04/01 04:07:16;;;;;;;62.20;12.05;;;16.30;58.50;;;;;;5102419;28;20024;-69
2024/04/01 04:09:42;;;;;;;57.60;9.45;;;16.40;58.30;;;;;;5102245;28;20043;-70
2024/04/01 04:12:11;;;;;;;57.75;10.77;;;16.30;58.10;;;;;;5102445;28;20024;-68
2024/04/01 04:14:36;;;;;;;54.78;8.25;;;16.40;58.20;;;;;;5093334;28;20063;-68
2024/04/01 04:17:02;;;;;;;62.90;9.77;;;16.40;58.00;;;;;;5101765;28;20390;-68
2024/04/01 04:19:28;;;;;;;56.53;9.57;;;16.40;57.80;;;;;;5069336;28;20035;-68
2024/04/01 04:21:55;;;;;;;50.95;9.90;;;16.50;57.30;;;;;;5100107;28;20063;-67
2024/04/01 04:24:24;;;;;;;44.42;10.02;;;16.50;84.10;;;;;;5102311;28;20031;-68
2024/04/01 04:26:50;;;;;;;54.70;9.82;;;16.60;56.80;;;;;;5110744;28;20052;-68
2024/04/01 04:29:16;;;;;;;49.47;9.82;;;16.70;56.70;;;;;;5108301;28;20098;-65
2024/04/01 04:31:55;;;;;;;57.22;9.18;;;16.60;56.70;;;;;;5102038;28;20023;-68
2024/04/01 04:34:21;;;;;;;46.70;10.10;;;16.60;56.70;;;;;;5102163;28;20047;-69
2024/04/01 04:36:47;;;;;;;54.00;10.73;;;16.60;56.70;;;;;;5101963;28;20295;-69
2024/04/01 04:39:24;;;;;;;63.97;9.82;;;16.60;56.70;;;;;;5102103;28;20032;-68
2024/04/01 04:41:52;;;;;;;52.85;8.68;;;16.60;56.50;;;;;;5083763;28;20339;-68
2024/04/01 04:44:19;;;;;;;58.58;8.10;;;16.70;55.50;;;;;;5102487;28;20087;-68
2024/04/01 04:46:45;;;;;;;44.67;9.90;;;16.70;55.80;;;;;;5101653;28;20036;-68
2024/04/01 04:49:11;;;;;;;50.78;9.80;;;;;;;;;;5101559;28;20062;-68
2024/04/01 04:51:36;;;;;;;45.58;7.40;;;16.80;54.70;;;;;;5101718;28;20073;-68
2024/04/01 04:54:04;;;;;;;56.67;10.38;;;16.80;72.60;;;;;;5101333;28;20040;-68
2024/04/01 04:56:30;;;;;;;46.70;9.38;;;17.00;72.90;;;;;;5101469;28;20296;-68
2024/04/01 04:58:55;;;;;;;54.58;10.18;;;17.00;72.70;;;;;;5101383;28;20036;-70
2024/04/01 05:01:21;;;;;;;53.95;10.45;;;17.10;72.40;;;;;;5101398;28;20043;-70
2024/04/01 05:03:47;;;;;;;56.33;9.60;;;17.00;54.60;;;;;;5101281;28;20086;-70
2024/04/01 05:06:13;;;;;;;34.05;5.80;;;17.00;54.00;;;;;;5101473;28;20320;-68
2024/04/01 05:08:39;;;;;;;55.83;9.73;;;;;;;;;;5067206;28;20100;-68
2024/04/01 05:11:08;;;;;;;61.08;8.98;;;17.00;53.80;;;;;;5100856;28;20043;-69
2024/04/01 05:13:39;;;;;;;52.40;7.35;;;17.10;54.40;;;;;;5101392;28;20087;-69
2024/04/01 05:16:08;;;;;;;54.15;10.65;;;17.10;54.40;;;;;;5101293;28;20036;-68
2024/04/01 05:18:34;;;;;;;52.53;7.30;;;17.10;54.20;;;;;;5101823;28;20023;-68
2024/04/01 05:21:00;;;;;;;46.03;10.23;;;17.20;54.20;;;;;;5101123;28;20039;-67
2024/04/01 05:23:26;;;;;;;60.47;8.25;;;17.20;54.10;;;;;;5101134;28;20027;-67
2024/04/01 05:25:52;;;;;;;41.60;8.07;;;17.20;54.10;;;;;;5101090;28;20035;-68
2024/04/01 05:28:18;;;;;;;49.33;9.30;;;17.30;64.10;;;;;;5101085;28;20330;-67
2024/04/01 05:30:46;;;;;;;38.90;10.18;;;17.30;74.60;;;;;;5100816;28;20043;-67
2024/04/01 05:33:18;;;;;;;64.90;9.93;;;17.30;53.30;;;;;;5100936;28;20336;-68
2024/04/01 05:35:44;;;;;;;41.63;6.95;;;17.30;53.90;;;;;;5083317;28;20032;-68
2024/04/01 05:38:10;;;;;;;44.67;7.95;;;17.40;53.90;;;;;;5100769;28;20096;-67
2024/04/01 05:40:36;;;;;;;58.58;9.77;;;17.40;53.80;;;;;;5082505;28;20094;-68
2024/04/01 05:43:02;;;;;;;57.55;9.23;;;17.50;53.70;;;;;;5100548;28;20032;-67
2024/04/01 05:45:27;;;;;;;51.72;9.50;;;17.40;54.00;;;;;;5100670;28;20316;-67
2024/04/01 05:47:54;;;;;;;46.63;9.70;;;17.50;54.00;;;;;;5082139;28;20047;-67
2024/04/01 05:50:20;;;;;;;61.63;10.77;;;17.60;54.00;;;;;;5100537;28;20024;-68
2024/04/01 05:52:47;;;;;;;49.63;8.43;;;17.60;53.90;;;;;;5100732;28;20028;-68
2024/04/01 05:55:13;;;;;;;53.97;8.45;;;17.70;68.20;;;;;;5100431;28;20027;-68
2024/04/01 05:57:39;;;;;;;52.55;11.27;;;;;;;;;;5100733;28;20032;-67
2024/04/01 06:00:06;;;;;;;52.95;7.53;;;17.80;67.60;;;;;;5100420;28;20024;-67
2024/04/01 06:02:31;;;;;;;56.88;8.13;;;18.20;69.10;;;;;;5100585;28;20063;-67
2024/04/01 06:04:57;;;;;;;42.05;6.68;;;17.90;68.00;;;;;;5103644;28;20031;-67
2024/04/01 06:07:23;;;;;;;58.67;8.68;;;18.10;68.20;;;;;;5100410;28;20032;-66
2024/04/01 06:09:48;;;;;;;48.78;8.40;;;18.30;68.10;;;;;;5082761;28;20032;-67
2024/04/01 06:12:14;;;;;;;68.00;10.10;;;18.30;52.60;;;;;;5099168;28;20091;-68
2024/04/01 06:14:40;;;;;;;42.58;7.55;;;18.40;52.30;;;;;;5100230;28;20126;-66
2024/04/01 06:17:05;;;;;;;39.83;8.75;;;18.90;67.00;;;;;;5099916;28;20027;-66
2024/04/01 06:19:31;;;;;;;46.35;11.02;;;18.60;51.80;;;;;;5100378;28;20224;-66
2024/04/01 06:21:57;;;;;;;48.88;8.80;;;18.70;51.80;;;;;;5073942;28;20046;-67
2024/04/01 06:24:22;;;;;;;41.20;8.15;;;18.80;51.70;;;;;;5099873;28;20024;-68
2024/04/01 06:26:48;;;;;;;54.60;9.25;;;18.80;51.60;;;;;;5101591;28;20036;-67
2024/04/01 06:29:14;;;;;;;49.90;9.02;;;18.90;51.60;;;;;;5074981;28;20117;-66
2024/04/01 06:31:40;;;;;;;52.53;9.05;;;18.90;51.50;;;;;;5096013;28;20036;-66
2024/04/01 06:34:06;;;;;;;47.55;6.78;;;18.90;51.50;;;;;;5085829;28;20098;-66
2024/04/01 06:36:34;;;;;;;36.88;6.97;;;19.00;51.50;;;;;;5104818;28;20040;-66
2024/04/01 06:39:02;;;;;;;42.22;8.48;;;18.90;51.50;;;;;;5099610;28;20087;-66
2024/04/01 06:41:28;;;;;;;47.72;8.48;;;18.90;51.50;;;;;;5099700;28;20324;-66
2024/04/01 06:43:54;;;;;;;44.33;9.20;;;18.80;69.60;;;;;;5100303;28;20042;-65
2024/04/01 06:46:19;;;;;;;43.95;7.40;;;18.90;51.50;;;;;;5108259;28;20043;-67
2024/04/01 06:48:45;;;;;;;56.47;8.25;;;18.90;51.40;;;;;;5104958;28;20032;-67
2024/04/01 06:51:11;;;;;;;46.42;8.32;;;19.00;51.40;;;;;;5099957;28;20635;-67
2024/04/01 06:53:36;;;;;;;37.78;7.97;;;19.00;51.30;;;;;;5102515;28;20086;-67
2024/04/01 06:56:02;;;;;;;51.53;8.38;;;19.10;51.30;;;;;;5076531;28;20040;-67
2024/04/01 06:58:28;;;;;;;59.25;9.45;;;19.10;51.30;;;;;;5106187;28;20040;-67
2024/04/01 07:00:54;;;;;;;53.45;8.13;;;19.10;51.50;;;;;;5100100;28;20043;-67
2024/04/01 07:03:19;;;;;;;42.80;8.50;;;19.20;51.50;;;;;;5100065;28;20254;-67
2024/04/01 07:05:45;;;;;;;61.88;9.52;;;19.20;51.50;;;;;;5099281;28;20091;-67
2024/04/01 07:08:10;;;;;;;52.40;7.85;;;19.30;51.30;;;;;;5102337;28;20027;-67
2024/04/01 07:10:36;;;;;;;58.83;11.95;;;19.40;51.00;;;;;;5099580;28;20028;-67
2024/04/01 07:13:02;;;;;;;48.25;8.98;;;19.50;50.90;;;;;;5101727;28;20362;-68
2024/04/01 07:15:29;;;;;;;46.22;7.88;;;19.60;50.70;;;;;;5099202;28;20024;-67
2024/04/01 07:17:55;;;;;;;48.28;7.57;;;19.70;50.30;;;;;;5100279;28;20039;-67
2024/04/01 07:20:20;;;;;;;45.20;8.40;;;19.70;50.30;;;;;;5099412;28;20205;-67
2024/04/01 07:22:49;;;;;;;58.65;8.40;;;19.80;50.50;;;;;;5099014;28;20035;-67
2024/04/01 07:25:15;;;;;;;38.97;8.65;;;19.90;50.40;;;;;;5103161;28;20435;-67
2024/04/01 07:27:41;;;;;;;50.65;8.00;;;19.90;50.30;;;;;;5111909;28;20043;-68
2024/04/01 07:30:08;;;;;;;37.78;6.88;;;19.90;50.20;;;;;;5103297;28;20087;-68
2024/04/01 07:32:34;;;;;;;59.40;9.75;;;20.00;50.20;;;;;;5107094;28;20032;-68
2024/04/01 07:35:01;;;;;;;54.00;8.57;;;20.10;50.40;;;;;;5103534;28;20336;-67
2024/04/01 07:37:29;;;;;;;43.05;9.18;;;20.10;50.40;;;;;;5103050;28;20028;-67
2024/04/01 07:39:55;;;;;;;50.22;9.52;;;20.10;50.40;;;;;;5103036;28;20036;-67
2024/04/01 07:42:21;;;;;;;46.60;8.48;;;20.30;66.10;;;;;;5103021;28;20026;-67
2024/04/01 07:44:48;;;;;;;58.17;11.75;;;20.20;50.60;;;;;;5103407;28;20095;-67
2024/04/01 07:47:14;;;;;;;44.75;9.55;;;20.40;67.80;;;;;;5103086;28;20035;-67
2024/04/01 07:49:40;;;;;;;55.45;11.40;;;20.50;60.80;;;;;;5103046;28;20036;-67
2024/04/01 07:52:10;;;;;;;46.10;8.05;;;20.60;51.10;;;;;;5103509;28;20024;-67
2024/04/01 07:54:36;;;;;;;54.28;10.05;;;20.70;51.00;;;;;;5102624;28;20059;-68
2024/04/01 07:57:02;;;;;;;60.17;9.38;;;20.80;50.60;;;;;;5102411;28;20293;-67
2024/04/01 07:59:32;;;;;;;49.70;10.63;;;21.10;49.20;;;;;;5105368;28;20028;-66
2024/04/01 08:02:00;;;;;;;58.83;11.18;;;21.20;48.80;;;;;;5102457;28;20126;-67
2024/04/01 08:04:29;;;;;;;76.70;11.70;;;21.40;53.50;;;;;;5106102;28;20027;-67
2024/04/01 08:06:55;;;;;;;61.17;10.27;;;21.40;48.60;;;;;;5102349;28;20032;-67
2024/04/01 08:09:22;;;;;;;37.22;8.63;;;21.50;48.10;;;;;;5102904;28;20024;-66
2024/04/01 08:11:49;;;;;;;49.50;11.30;;;21.70;62.20;;;;;;5102353;28;20051;-67
2024/04/01 08:14:19;;;;;;;65.35;11.02;;;21.80;62.60;;;;;;5102496;28;20141;-66
2024/04/01 08:16:46;;;;;;;66.07;10.63;;;21.70;47.30;;;;;;5107203;28;20058;-67
2024/04/01 08:19:14;;;;;;;44.65;8.50;;;21.90;47.50;;;;;;5112480;28;20031;-67
2024/04/01 08:21:39;;;;;;;65.57;11.40;;;22.00;47.20;;;;;;5083906;28;20267;-67
2024/04/01 08:24:05;;;;;;;61.42;13.68;;;22.10;47.00;;;;;;5108078;28;20047;-67
2024/04/01 08:26:33;;;;;;;54.50;10.05;;;22.30;46.50;;;;;;5102584;28;20032;-67
2024/04/01 08:28:59;;;;;;;64.85;11.15;;;22.30;59.70;;;;;;5109250;28;20095;-67
2024/04/01 08:31:24;;;;;;;62.92;10.63;;;22.30;45.70;;;;;;5104275;28;20028;-67
2024/04/01 08:33:50;;;;;;;63.05;11.73;;;22.40;46.20;;;;;;5102103;28;20043;-67
2024/04/01 08:36:17;;;;;;;57.38;9.65;;;22.60;59.90;;;;;;5100221;28;20201;-67
2024/04/01 08:38:43;;;;;;;64.57;11.68;;;22.50;46.30;;;;;;5102063;28;20100;-67
2024/04/01 08:41:18;;;;;;;68.03;11.82;;;22.60;46.60;;;;;;5102030;28;20036;-67
2024/04/01 08:43:52;;;;;;;68.93;12.15;;;22.80;45.90;;;;;;5102370;28;20603;-66
2024/04/01 08:46:18;;;;;;;77.50;11.57;;;22.90;46.50;;;;;;5101932;28;20091;-67
2024/04/01 08:48:49;;;;;;;51.35;10.88;;;23.10;46.10;;;;;;5101665;28;20028;-67
2024/04/01 08:51:19;;;;;;;67.20;9.93;;;23.30;58.70;;;;;;5101175;28;20385;-67
2024/04/01 08:54:01;;;;;;;81.43;12.38;;;23.40;57.70;;;;;;5101386;28;20044;-67
2024/04/01 08:56:30;;;;;;;67.50;11.65;;;23.50;44.70;;;;;;5101554;28;20027;-67
2024/04/01 08:58:56;;;;;;;;;;;23.70;43.70;;;;;;5083848;28;20042;-67
2024/04/01 09:01:21;;;;;;;65.63;11.07;;;23.90;57.40;;;;;;5101980;28;19916;-67
2024/04/01 09:03:48;;;;;;;71.43;12.15;;;23.80;44.20;;;;;;5101234;28;20149;-67
2024/04/01 09:06:18;;;;;;;99.63;20.70;;;24.00;44.00;;;;;;5106608;28;20027;-66
2024/04/01 09:08:46;;;;;;;77.13;14.25;;;;;;;;;;5102520;28;20034;-67
2024/04/01 09:11:12;;;;;;;73.67;13.47;;;24.40;48.10;;;;;;5101302;28;20059;-67
2024/04/01 09:13:38;;;;;;;73.10;13.48;;;24.60;56.00;;;;;;5101032;28;20313;-67
2024/04/01 09:16:05;;;;;;;67.40;14.60;;;24.60;42.90;;;;;;5108458;28;20040;-66
2024/04/01 09:18:36;;;;;;;74.95;16.08;;;24.70;55.40;;;;;;5101932;28;20044;-66
2024/04/01 09:21:06;;;;;;;81.50;13.05;;;24.80;42.50;;;;;;5100480;28;20073;-65
2024/04/01 09:23:40;;;;;;;81.15;14.43;;;24.90;42.60;;;;;;5082395;28;20240;-64
2024/04/01 09:26:06;;;;;;;87.55;15.57;;;25.00;42.50;;;;;;5100685;28;20052;-65
2024/04/01 09:28:33;;;;;;;74.85;13.60;;;25.20;42.20;;;;;;5101029;28;20032;-65
2024/04/01 09:30:59;;;;;;;98.07;15.25;;;25.20;41.90;;;;;;5101031;28;20069;-65
2024/04/01 09:33:25;;;;;;;69.00;13.73;;;25.30;41.50;;;;;;5101498;28;20032;-64
2024/04/01 09:35:51;;;;;;;76.38;13.40;;;25.40;52.90;;;;;;5100800;28;20351;-64
2024/04/01 09:38:17;;;;;;;80.07;15.98;;;25.40;41.60;;;;;;5100847;28;20260;-65
2024/04/01 09:40:51;;;;;;;95.40;13.10;;;25.40;40.20;;;;;;5100738;28;20077;-65
2024/04/01 09:43:29;;;;;;;77.30;16.42;;;25.40;39.40;;;;;;5100550;28;20138;-64
2024/04/01 09:45:54;;;;;;;91.25;15.35;;;25.40;40.10;;;;;;5100860;28;20186;-65
2024/04/01 09:48:28;;;;;;;79.50;15.68;;;25.40;40.10;;;;;;5100289;28;20024;-64
2024/04/01 09:51:00;;;;;;;88.68;17.20;;;25.40;40.40;;;;;;5100837;28;20084;-64
2024/04/01 09:53:27;;;;;;;80.35;15.13;;;25.50;51.80;;;;;;5088144;28;20059;-64
2024/04/01 09:56:19;;;;;;;62.42;12.00;;;25.50;40.60;;;;;;5099748;28;20354;-65
2024/04/01 09:59:08;;;;;;;80.88;15.70;;;25.90;51.80;;;;;;5100124;28;20024;-65
2024/04/01 10:01:43;;;;;;;89.57;15.52;;;25.70;42.90;;;;;;5099999;28;20094;-65
2024/04/01 10:04:28;;;;;;;86.72;13.27;;;25.70;39.60;;;;;;5100157;28;20346;-65
2024/04/01 10:07:09;;;;;;;89.35;16.85;;;25.90;39.40;;;;;;5099901;28;20036;-64
2024/04/01 10:10:12;;;;;;;65.25;13.30;;;26.00;39.70;;;;;;5100450;28;20036;-65
2024/04/01 10:13:02;;;;;;;67.57;14.73;;;26.30;48.90;;;;;;5099931;28;20081;-64
2024/04/01 10:15:42;;;;;;;79.53;17.05;;;26.10;37.90;;;;;;5099996;28;20032;-64
2024/04/01 10:18:35;;;;;;;89.50;15.90;;;26.00;50.90;;;;;;5099891;28;20266;-65
2024/04/01 10:21:21;;;;;;;109.10;15.68;;;26.20;37.70;;;;;;5099726;28;20264;-67
2024/04/01 10:24:33;;;;;;;86.10;16.27;;;26.20;37.70;;;;;;5099817;28;20039;-65
2024/04/01 10:27:02;;;;;;;88.20;15.55;;;26.30;37.70;;;;;;5107332;28;20275;-65
2024/04/01 10:29:53;;;;;;;73.10;14.63;;;26.30;37.70;;;;;;5082361;28;20292;-65
2024/04/01 10:32:28;;;;;;;74.60;16.23;;;26.40;38.10;;;;;;5099662;28;20091;-65
2024/04/01 10:35:14;;;;;;;59.03;10.07;;;26.50;38.20;;;;;;5101077;28;20039;-65
2024/04/01 10:37:52;;;;;;;59.88;11.43;;;26.60;48.90;;;;;;5100793;28;20335;-64
2024/04/01 10:40:45;;;;;;;70.15;12.95;;;26.60;38.40;;;;;;5099213;28;20047;-64
2024/04/01 10:43:48;;;;;;;79.97;13.85;;;26.90;38.10;;;;;;5099839;28;20266;-65
2024/04/01 10:46:47;;;;;;;71.35;14.38;;;26.90;38.40;;;;;;5099393;28;20028;-64
2024/04/01 10:49:34;;;;;;;79.53;17.70;;;27.00;38.30;;;;;;5099328;28;20590;-64
2024/04/01 10:52:28;;;;;;;93.47;14.02;;;27.10;38.40;;;;;;5099289;28;20036;-64
2024/04/01 10:55:03;;;;;;;94.03;15.52;;;27.10;38.20;;;;;;5079336;28;20589;-64
2024/04/01 10:57:53;;;;;;;81.25;14.68;;;27.10;38.30;;;;;;5059319;28;20234;-65
2024/04/01 11:01:02;;;;;;;70.95;13.13;;;27.20;38.60;;;;;;5072988;28;20063;-65
2024/04/01 11:04:02;;;;;;;83.22;17.17;;;27.40;49.30;;;;;;5049012;28;20037;-65
2024/04/01 11:07:04;;;;;;;65.97;12.45;;;27.40;36.90;;;;;;5081268;28;20123;-65
2024/04/01 11:09:49;;;;;;;92.88;15.48;;;27.30;47.70;;;;;;5080840;28;20040;-65
2024/04/01 11:12:33;;;;;;;80.38;14.77;;;27.20;36.80;;;;;;5079197;28;20100;-65
2024/04/01 11:15:03;;;;;;;68.13;13.15;;;27.20;37.50;;;;;;5080317;28;20075;-65
2024/04/01 11:17:29;;;;;;;67.97;14.02;;;27.10;48.40;;;;;;5084610;28;20055;-65
2024/04/01 11:20:07;;;;;;;77.53;15.43;;;27.30;36.80;;;;;;5079044;28;20099;-65
2024/04/01 11:22:47;;;;;;;83.55;15.05;;;27.40;37.20;;;;;;5084045;28;20220;-64
2024/04/01 11:25:49;;;;;;;74.28;14.30;;;27.40;36.90;;;;;;5079895;28;20039;-65
2024/04/01 11:28:39;;;;;;;64.30;14.68;;;27.40;48.20;;;;;;5072050;28;20048;-64
2024/04/01 11:31:18;;;;;;;78.95;16.33;;;27.20;47.80;;;;;;5078396;28;20051;-65
2024/04/01 11:34:18;;;;;;;74.70;14.00;;;27.50;48.20;;;;;;5080678;28;20360;-65
2024/04/01 11:36:56;;;;;;;79.60;15.15;;;27.40;36.90;;;;;;5065970;28;20116;-65
2024/04/01 11:39:22;;;;;;;88.28;16.45;;;27.50;47.10;;;;;;5077404;28;20071;-66
2024/04/01 11:41:49;;;;;;;93.80;16.13;;;27.70;47.10;;;;;;5077593;28;20052;-64
2024/04/01 11:44:22;;;;;;;78.20;15.23;;;27.70;36.10;;;;;;5078098;28;20048;-64
2024/04/01 11:46:50;;;;;;;75.72;15.73;;;27.70;36.50;;;;;;5078860;28;20063;-65
2024/04/01 11:49:16;;;;;;;96.78;15.65;;;27.70;36.40;;;;;;5079357;28;20059;-64
2024/04/01 11:51:42;;;;;;;83.10;15.32;;;27.80;36.70;;;;;;5082631;28;20036;-65
2024/04/01 11:54:08;;;;;;;78.07;16.65;;;27.90;36.50;;;;;;5078328;28;20041;-65
2024/04/01 11:56:38;;;;;;;97.35;16.42;;;28.20;46.00;;;;;;5078107;28;20344;-64
2024/04/01 11:59:09;;;;;;;77.22;16.17;;;28.10;36.10;;;;;;5078428;28;20062;-65
2024/04/01 12:01:36;;;;;;;105.72;19.60;;;28.30;46.10;;;;;;5078676;28;20056;-66
2024/04/01 12:04:03;;;;;;;70.27;16.10;;;28.50;45.20;;;;;;5078716;28;20039;-65
2024/04/01 12:06:34;;;;;;;76.65;14.25;;;28.40;35.40;;;;;;5079108;28;20162;-64
2024/04/01 12:09:01;;;;;;;84.47;16.95;;;28.80;46.30;;;;;;5078454;28;20037;-64
2024/04/01 12:11:34;;;;;;;85.13;15.60;;;28.60;35.00;;;;;;5082183;28;20096;-64
2024/04/01 12:14:01;;;;;;;91.55;15.00;;;29.10;46.80;;;;;;5082168;28;20037;-66
2024/04/01 12:16:32;;;;;;;81.68;13.93;;;28.80;34.80;;;;;;5082178;28;20040;-65
2024/04/01 12:19:00;;;;;;;82.65;15.48;;;29.00;34.80;;;;;;5081924;28;20052;-65
2024/04/01 12:21:29;;;;;;;84.57;15.30;;;29.00;34.50;;;;;;5082182;28;20063;-65
2024/04/01 12:23:55;;;;;;;69.47;14.70;;;29.20;44.50;;;;;;5082476;28;20125;-66
2024/04/01 12:26:21;;;;;;;82.10;16.15;;;29.00;33.90;;;;;;5088119;28;20264;-66
2024/04/01 12:28:47;;;;;;;59.53;14.00;;;29.10;33.80;;;;;;5081349;28;20382;-65
2024/04/01 12:31:18;;;;;;;81.00;14.40;;;29.20;33.70;;;;;;5081624;28;20099;-65
2024/04/01 12:33:47;;;;;;;88.90;16.15;;;29.10;33.40;;;;;;5081775;28;20070;-65
2024/04/01 12:36:13;;;;;;;87.47;16.38;;;29.40;33.50;;;;;;5081600;28;20074;-65
2024/04/01 12:38:41;;;;;;;87.82;17.58;;;29.80;33.50;;;;;;5081450;28;20071;-65
2024/04/01 12:41:08;;;;;;;75.35;16.10;;;30.00;33.90;;;;;;5081894;28;20050;-65
2024/04/01 12:43:36;;;;;;;69.72;13.90;;;30.20;33.30;;;;;;5081526;28;20045;-65
2024/04/01 12:46:03;;;;;;;73.20;13.70;;;30.30;33.70;;;;;;5082729;28;20036;-65
2024/04/01 12:48:29;;;;;;;72.18;14.50;;;30.20;33.30;;;;;;5081231;28;20025;-64